Westfield, NC (27053)

04:28 EDT le 22 mai 2015 (GMT -0400)
Hanging Rock State Park Visitor Center | | Change Station
CLOSE
Current Station
Stations météorologiques personnelles
Location: Danbury, NC
Altitude: 1683 ft
Stations météo à proximité

Alt. 1683 ft 36.40 °N, 80.27 °W | Updated 13 minutes ago

Ciel dégagé
Ciel dégagé
54.9 ° F
Paraît 54.9 ° F
N
2.7
Vent Variable Vent de NNO

Aujourd'hui
Haut(e) -- | Bas -- ° F
--% Risque de précip.
Hier
Haut(e) -- | Bas -- ° F
Precip. -- pouce
6:09 AM 8:26 PM
Lune montante, 19% visible
Pression 30.10 pouce
Visibilité -9999.0 Miles terrestres
Nuages Ciel dégagé
Point de rosée 43 ° F
Humidité 64%
Précipitations 0.00 pouce
Profondeur de la couche neigeuse Non disponible.
UV 0 sur 12
Pollen 4.60 sur 12
Qualité de l'air Non disponible.
Flu Activity No Activity
METAR KMWK 220815Z AUTO 32007KT CLR 12/06 A3010 RMK AO2 T01220060 PWINO

More Conditions Fewer Conditions

Pression 30.10 pouce
Visibilité -9999.0 Miles terrestres
Nuages Ciel dégagé
Point de rosée 43 ° F
Humidité 64%
Précipitations 0.00 pouce
Profondeur de la couche neigeuse Non disponible.
UV 0 sur 12
Pollen 4.60 sur 12
Qualité de l'air Non disponible.
Flu Activity No Activity
METAR KMWK 220815Z AUTO 32007KT CLR 12/06 A3010 RMK AO2 T01220060 PWINO

More Conditions Fewer Conditions

10-Day Weather Forecast

Almanac

Astronomie

May. 22, 2015 Lever Coucher
Temps réel
Crépuscule civil
Crépuscule nautique
Crépuscule astronomique
Lune
Durée de lumière visible
Longueur du jour
Tomorrow will be .
, % of the Moon is Illuminated

Extrêmes aujourd'hui

State Highs State Lows

Community

WunderPhotos

Upload Photos

1,823,197 Photos téléchargées !

WunderBlogs® & News

Nearby

Qualité de l'air

  Qualité de l'air Indice de la qualité de l'air Polluant
Not available.

Épaisseur de neige

Station Depth Altitude

Activité sismique

Ville Distance Mag. Time & Date
Minimum magnitude displayed is 2.5.

Températures des eaux côtières

Lieu Température

Stations

Stations météo à proximité

Emplacement de la station Température Refroidissement éolien Point de rosée Humidité Vent Precip. Alt. Mise à jour Type